Time;durP1;ratioP1;P1;durP2;ratioP2;P2;SDS_P1;SDS_P2;PMS_P1;PMS_P2;Temp;Humidity;BMP_temperature;BMP_pressure;BME280_temperature;BME280_humidity;BME280_pressure;Samples;Min_cycle;Max_cycle;Signal;HPM_P1;HPM_P2
2022/03/30 00:00:10;;;;;;;18.83;11.43;;;12.10;42.70;;;;;;5096502;28;20185;-63
2022/03/30 00:02:37;;;;;;;12.50;10.90;;;12.10;42.80;;;;;;5112508;28;20188;-63
2022/03/30 00:05:07;;;;;;;16.80;11.85;;;12.00;42.80;;;;;;5107988;28;20285;-63
2022/03/30 00:07:34;;;;;;;21.80;12.43;;;12.10;42.60;;;;;;5092004;28;20256;-64
2022/03/30 00:10:02;;;;;;;16.95;12.25;;;12.00;42.50;;;;;;5094933;28;20192;-63
2022/03/30 00:12:33;;;;;;;17.15;12.20;;;12.00;42.80;;;;;;5112355;28;20193;-62
2022/03/30 00:15:03;;;;;;;14.25;11.02;;;12.00;42.90;;;;;;5112212;28;20224;-63
2022/03/30 00:17:31;;;;;;;16.48;11.95;;;12.00;43.10;;;;;;5095675;28;20674;-64
2022/03/30 00:20:03;;;;;;;19.25;12.02;;;12.00;43.30;;;;;;5096820;28;20201;-63
2022/03/30 00:22:32;;;;;;;19.40;11.93;;;12.00;44.00;;;;;;5116132;28;20188;-65
2022/03/30 00:24:59;;;;;;;13.95;12.32;;;11.90;44.90;;;;;;5114694;28;20250;-63
2022/03/30 00:27:27;;;;;;;15.93;12.32;;;11.90;45.30;;;;;;5095696;28;20247;-63
2022/03/30 00:29:54;;;;;;;17.35;12.60;;;11.90;45.40;;;;;;5095136;28;20533;-65
2022/03/30 00:32:21;;;;;;;18.27;13.82;;;11.90;45.10;;;;;;5115836;28;20203;-63
2022/03/30 00:34:48;;;;;;;18.52;11.25;;;11.90;44.80;;;;;;5115744;28;20249;-63
2022/03/30 00:37:16;;;;;;;21.33;13.55;;;11.90;44.50;;;;;;5096400;28;20207;-63
2022/03/30 00:39:45;;;;;;;21.10;12.20;;;11.90;44.30;;;;;;5095395;28;20200;-63
2022/03/30 00:42:16;;;;;;;17.88;11.93;;;11.90;44.40;;;;;;5112635;28;20285;-63
2022/03/30 00:44:44;;;;;;;17.20;13.73;;;11.90;44.20;;;;;;5105860;28;20276;-63
2022/03/30 00:47:18;;;;;;;14.43;12.23;;;11.90;44.20;;;;;;5095106;28;20228;-64
2022/03/30 00:49:45;;;;;;;19.10;11.77;;;11.90;44.20;;;;;;5095896;28;20181;-63
2022/03/30 00:52:13;;;;;;;19.50;11.35;;;11.90;44.00;;;;;;5094757;28;20189;-63
2022/03/30 00:54:44;;;;;;;18.88;11.88;;;11.90;44.00;;;;;;5074667;28;20664;-63
2022/03/30 00:57:13;;;;;;;15.07;12.20;;;11.80;43.70;;;;;;5074707;28;20610;-63
2022/03/30 00:59:42;;;;;;;15.98;11.10;;;11.80;44.10;;;;;;5114422;28;20666;-63
2022/03/30 01:02:10;;;;;;;17.02;10.95;;;11.70;44.90;;;;;;5115242;28;20224;-63
2022/03/30 01:04:38;;;;;;;17.33;11.35;;;11.70;44.70;;;;;;5095759;28;20528;-63
2022/03/30 01:07:09;;;;;;;14.30;11.00;;;11.60;44.80;;;;;;5094804;28;20650;-63
2022/03/30 01:09:36;;;;;;;18.45;13.80;;;11.60;45.90;;;;;;5112304;28;20199;-64
2022/03/30 01:12:07;;;;;;;27.48;16.95;;;11.50;46.70;;;;;;5100534;28;20185;-64
2022/03/30 01:14:35;;;;;;;23.77;15.93;;;11.40;47.50;;;;;;5094621;28;20232;-63
2022/03/30 01:17:03;;;;;;;21.85;14.80;;;11.40;47.20;;;;;;5107766;28;20643;-63
2022/03/30 01:19:32;;;;;;;27.58;15.57;;;11.30;47.20;;;;;;5115076;28;20543;-63
2022/03/30 01:22:01;;;;;;;17.17;13.27;;;11.30;47.30;;;;;;5102637;28;20185;-63
2022/03/30 01:24:29;;;;;;;17.23;12.02;;;11.40;47.40;;;;;;5094169;28;20204;-64
2022/03/30 01:26:56;;;;;;;19.42;13.63;;;11.40;47.30;;;;;;5104825;28;20656;-62
2022/03/30 01:32:29;;;;;;;18.55;11.93;;;11.40;47.20;;;;;;5062593;28;20189;-63
2022/03/30 01:35:00;;;;;;;15.85;10.77;;;11.50;46.80;;;;;;5100680;28;20216;-63
2022/03/30 01:37:30;;;;;;;22.65;12.30;;;11.50;46.40;;;;;;5114979;28;20603;-63
2022/03/30 01:39:59;;;;;;;16.08;11.70;;;11.50;47.10;;;;;;5113029;28;20623;-63
2022/03/30 01:42:27;;;;;;;17.20;12.15;;;11.60;47.30;;;;;;5114460;28;20184;-63
2022/03/30 01:44:57;;;;;;;16.75;11.43;;;11.60;47.20;;;;;;5094995;28;20195;-64
2022/03/30 01:47:24;;;;;;;19.40;12.57;;;11.60;47.10;;;;;;5094102;28;20244;-63
2022/03/30 01:49:52;;;;;;;13.15;10.65;;;11.50;47.10;;;;;;5112080;28;20188;-63
2022/03/30 01:52:19;;;;;;;13.88;11.80;;;11.50;47.20;;;;;;5114053;28;20198;-62
2022/03/30 01:54:48;;;;;;;17.33;10.95;;;11.50;47.10;;;;;;5097100;28;20244;-64
2022/03/30 01:57:16;;;;;;;15.90;11.23;;;11.50;47.10;;;;;;5093788;28;20195;-63
2022/03/30 01:59:45;;;;;;;15.02;11.52;;;11.50;47.20;;;;;;5108992;28;20283;-63
2022/03/30 02:02:12;;;;;;;16.60;11.27;;;11.50;47.50;;;;;;5114098;28;20192;-63
2022/03/30 02:04:40;;;;;;;14.25;10.63;;;11.50;47.90;;;;;;5094039;28;20185;-63
2022/03/30 02:07:09;;;;;;;16.35;12.85;;;11.50;48.00;;;;;;5093550;28;20706;-63
2022/03/30 02:09:36;;;;;;;19.13;12.90;;;11.50;48.10;;;;;;5111526;28;20275;-63
2022/03/30 02:12:06;;;;;;;14.23;9.70;;;11.40;48.10;;;;;;5114058;28;20554;-63
2022/03/30 02:14:34;;;;;;;17.75;12.05;;;11.40;48.00;;;;;;5096047;28;20241;-63
2022/03/30 02:17:01;;;;;;;15.48;11.25;;;11.40;47.70;;;;;;5093414;28;20185;-64
2022/03/30 02:19:29;;;;;;;16.27;11.55;;;11.40;47.70;;;;;;5108887;28;20981;-64
2022/03/30 02:21:56;;;;;;;17.45;12.30;;;11.40;47.60;;;;;;5113869;28;20189;-63
2022/03/30 02:24:23;;;;;;;19.08;12.13;;;11.40;47.90;;;;;;5098575;28;20186;-63
2022/03/30 02:26:50;;;;;;;16.85;11.52;;;11.40;48.00;;;;;;5093070;28;20212;-63
2022/03/30 02:29:19;;;;;;;18.75;12.07;;;11.40;48.10;;;;;;5105664;28;20238;-63
2022/03/30 02:31:47;;;;;;;15.73;10.68;;;11.40;48.80;;;;;;5113280;28;20195;-63
2022/03/30 02:34:14;;;;;;;18.42;11.57;;;11.30;48.40;;;;;;5101169;28;20669;-63
2022/03/30 02:36:43;;;;;;;17.23;12.68;;;11.30;48.40;;;;;;5092379;28;20188;-63
2022/03/30 02:39:11;;;;;;;15.88;10.75;;;11.30;48.50;;;;;;5103091;28;20609;-63
2022/03/30 02:41:39;;;;;;;17.48;12.45;;;11.30;48.40;;;;;;5113345;28;20198;-63
2022/03/30 02:44:07;;;;;;;12.73;10.93;;;11.20;48.30;;;;;;5103642;28;20181;-63
2022/03/30 02:46:39;;;;;;;12.55;10.07;;;11.20;48.20;;;;;;5093048;28;20613;-63
2022/03/30 02:49:07;;;;;;;15.77;12.18;;;11.20;48.30;;;;;;5093617;28;20196;-64
2022/03/30 02:51:34;;;;;;;19.52;12.55;;;11.20;48.10;;;;;;5093012;28;20224;-63
2022/03/30 02:54:08;;;;;;;16.13;12.00;;;11.10;48.30;;;;;;5099666;28;20220;-63
2022/03/30 02:56:35;;;;;;;16.52;11.65;;;11.10;49.10;;;;;;5113153;28;20685;-63
2022/03/30 02:59:02;;;;;;;17.60;11.00;;;11.10;48.80;;;;;;5106308;28;20177;-63
2022/03/30 03:01:30;;;;;;;15.65;11.32;;;11.10;48.80;;;;;;5092724;28;20189;-63
2022/03/30 03:03:58;;;;;;;16.88;11.30;;;11.10;48.70;;;;;;5097433;28;20226;-63
2022/03/30 03:06:25;;;;;;;15.90;11.50;;;11.00;48.70;;;;;;5112923;28;20216;-62
2022/03/30 03:08:52;;;;;;;16.38;12.60;;;11.00;48.70;;;;;;5108572;28;20189;-63
2022/03/30 03:11:19;;;;;;;14.02;12.45;;;11.00;48.50;;;;;;5092386;28;20662;-64
2022/03/30 03:13:46;;;;;;;16.42;10.45;;;11.00;48.60;;;;;;5093250;28;20644;-63
2022/03/30 03:16:14;;;;;;;19.20;11.35;;;10.90;48.50;;;;;;5103454;28;20213;-63
2022/03/30 03:18:42;;;;;;;22.05;11.82;;;10.90;48.30;;;;;;5092175;28;20246;-63
2022/03/30 03:21:11;;;;;;;16.67;12.23;;;10.90;48.30;;;;;;5092355;28;20200;-65
2022/03/30 03:23:41;;;;;;;19.92;11.85;;;10.90;48.20;;;;;;5092664;28;20184;-63
2022/03/30 03:26:09;;;;;;;20.45;12.55;;;10.90;48.10;;;;;;5112815;28;20196;-63
2022/03/30 03:28:36;;;;;;;16.55;11.40;;;11.00;48.20;;;;;;5092540;28;20655;-63
2022/03/30 03:31:04;;;;;;;14.05;11.35;;;10.90;48.50;;;;;;5092405;28;20614;-66
2022/03/30 03:33:32;;;;;;;16.27;13.00;;;10.80;48.70;;;;;;5110210;28;20188;-63
2022/03/30 03:36:00;;;;;;;22.52;14.35;;;10.80;49.00;;;;;;5112742;28;20572;-63
2022/03/30 03:38:28;;;;;;;18.05;13.05;;;10.80;49.10;;;;;;5094912;28;20288;-63
2022/03/30 03:40:55;;;;;;;16.83;12.80;;;10.80;49.00;;;;;;5091954;28;20250;-63
2022/03/30 03:43:23;;;;;;;21.10;12.20;;;10.80;48.90;;;;;;5107881;28;20204;-63
2022/03/30 03:45:50;;;;;;;13.60;10.98;;;10.80;49.00;;;;;;5112671;28;20188;-63
2022/03/30 03:48:17;;;;;;;16.33;11.88;;;10.80;49.20;;;;;;5103096;28;20253;-63
2022/03/30 03:50:45;;;;;;;17.75;11.00;;;10.80;49.40;;;;;;5096213;28;20181;-64
2022/03/30 03:53:12;;;;;;;16.33;10.00;;;10.80;49.10;;;;;;5096075;28;20439;-63
2022/03/30 03:55:40;;;;;;;21.00;10.65;;;10.70;49.00;;;;;;5096316;28;20191;-63
2022/03/30 03:58:10;;;;;;;15.18;10.88;;;10.70;48.90;;;;;;5108945;28;20547;-63
2022/03/30 04:00:37;;;;;;;13.55;9.57;;;10.60;48.20;;;;;;5105018;28;20518;-63
2022/03/30 04:03:04;;;;;;;11.63;9.57;;;10.60;48.30;;;;;;5103693;28;20237;-64
2022/03/30 04:05:32;;;;;;;16.63;11.68;;;10.60;48.40;;;;;;5116580;28;20188;-64
2022/03/30 04:08:00;;;;;;;18.15;10.60;;;10.60;48.70;;;;;;5114836;28;20247;-63
2022/03/30 04:10:30;;;;;;;18.17;11.32;;;10.60;48.80;;;;;;5116514;28;20196;-63
2022/03/30 04:12:59;;;;;;;25.20;11.60;;;10.60;48.80;;;;;;5101531;28;20185;-63
2022/03/30 04:15:27;;;;;;;18.02;10.98;;;10.60;48.90;;;;;;5103387;28;20220;-63
2022/03/30 04:17:57;;;;;;;15.18;11.90;;;10.60;49.10;;;;;;5116570;28;20196;-65
2022/03/30 04:20:25;;;;;;;13.18;11.13;;;10.60;49.20;;;;;;5108924;28;20199;-63
2022/03/30 04:22:52;;;;;;;17.02;11.07;;;10.50;49.20;;;;;;5095896;28;20684;-65
2022/03/30 04:25:28;;;;;;;15.15;11.13;;;10.60;49.30;;;;;;5100905;28;20187;-63
2022/03/30 04:27:55;;;;;;;18.27;11.98;;;10.60;49.40;;;;;;5116079;28;20310;-63
2022/03/30 04:30:24;;;;;;;20.95;11.15;;;10.60;49.50;;;;;;5109873;28;20189;-63
2022/03/30 04:32:59;;;;;;;16.45;12.35;;;10.60;49.60;;;;;;5095727;28;20205;-63
2022/03/30 04:35:27;;;;;;;14.30;10.65;;;10.60;49.70;;;;;;5100912;28;20180;-63
2022/03/30 04:37:57;;;;;;;17.95;11.52;;;10.60;49.60;;;;;;5115898;28;20192;-63
2022/03/30 04:40:28;;;;;;;18.65;10.30;;;10.60;49.60;;;;;;5113947;28;20185;-63
2022/03/30 04:42:56;;;;;;;22.05;12.20;;;10.60;49.60;;;;;;5116140;28;20265;-63
2022/03/30 04:45:28;;;;;;;19.48;11.77;;;10.50;49.50;;;;;;5108818;28;20565;-63
2022/03/30 04:47:55;;;;;;;23.40;12.93;;;10.60;49.70;;;;;;5095439;28;20217;-63
2022/03/30 04:50:23;;;;;;;18.73;11.35;;;10.60;49.70;;;;;;5100885;28;20233;-63
2022/03/30 04:52:51;;;;;;;16.10;11.95;;;10.60;49.30;;;;;;5114468;28;20189;-63
2022/03/30 04:55:19;;;;;;;16.67;10.63;;;10.50;49.20;;;;;;5115276;28;20184;-63
2022/03/30 04:57:46;;;;;;;14.52;10.35;;;10.50;49.50;;;;;;5115590;28;20184;-63
2022/03/30 05:00:16;;;;;;;15.82;11.10;;;10.50;49.90;;;;;;5113922;28;20185;-63
2022/03/30 05:02:45;;;;;;;19.77;10.63;;;10.50;49.80;;;;;;5115535;28;20672;-63
2022/03/30 05:05:12;;;;;;;15.70;11.00;;;10.50;49.80;;;;;;5092730;28;20200;-63
2022/03/30 05:07:40;;;;;;;21.35;10.90;;;10.50;50.00;;;;;;5093124;28;20262;-64
2022/03/30 05:10:28;;;;;;;23.67;12.00;;;10.50;50.40;;;;;;5093290;28;20193;-63
2022/03/30 05:12:56;;;;;;;13.20;10.23;;;10.40;50.20;;;;;;5093005;28;20192;-63
2022/03/30 05:15:24;;;;;;;16.50;10.32;;;10.40;50.20;;;;;;5092867;28;20225;-63
2022/03/30 05:17:52;;;;;;;17.90;10.93;;;10.50;50.40;;;;;;5093033;28;20189;-67
2022/03/30 05:20:19;;;;;;;17.73;10.18;;;10.50;50.50;;;;;;5096926;28;20181;-63
2022/03/30 05:22:47;;;;;;;13.23;9.73;;;10.40;50.30;;;;;;5092998;28;20276;-63
2022/03/30 05:25:15;;;;;;;19.27;9.77;;;10.40;50.40;;;;;;5092786;28;20189;-63
2022/03/30 05:27:43;;;;;;;14.70;9.63;;;10.50;50.40;;;;;;5096581;28;20213;-63
2022/03/30 05:30:12;;;;;;;15.20;11.00;;;10.50;50.70;;;;;;5092607;28;20192;-69
2022/03/30 05:32:45;;;;;;;17.98;11.55;;;10.50;50.80;;;;;;5092996;28;20189;-63
2022/03/30 05:35:15;;;;;;;15.68;12.25;;;10.60;50.90;;;;;;5092670;28;20197;-63
2022/03/30 05:37:46;;;;;;;17.67;10.95;;;10.60;50.90;;;;;;5093195;28;20189;-63
2022/03/30 05:40:16;;;;;;;13.05;9.40;;;10.60;50.80;;;;;;5095440;28;20197;-63
2022/03/30 05:42:44;;;;;;;18.10;12.60;;;10.60;50.80;;;;;;5092694;28;20271;-64
2022/03/30 05:45:11;;;;;;;19.08;11.93;;;10.70;50.90;;;;;;5089026;28;20189;-64
2022/03/30 05:47:38;;;;;;;21.95;12.32;;;10.70;50.90;;;;;;5085657;28;20216;-63
2022/03/30 05:50:08;;;;;;;20.13;11.27;;;10.70;50.90;;;;;;5092145;28;20181;-63
2022/03/30 05:52:46;;;;;;;16.33;10.02;;;10.60;51.30;;;;;;5092337;28;20201;-64
2022/03/30 05:55:13;;;;;;;20.10;11.65;;;10.60;51.60;;;;;;5089303;28;20196;-63
2022/03/30 05:57:40;;;;;;;18.67;11.55;;;10.60;51.50;;;;;;5092372;28;20189;-63
2022/03/30 06:00:12;;;;;;;17.75;13.13;;;10.60;51.70;;;;;;5092192;28;20524;-63
2022/03/30 06:02:39;;;;;;;16.90;10.85;;;10.50;51.90;;;;;;5091943;28;20193;-63
2022/03/30 06:05:10;;;;;;;16.83;11.38;;;10.50;52.70;;;;;;5092312;28;20181;-63
2022/03/30 06:07:39;;;;;;;15.70;11.65;;;10.50;53.10;;;;;;5091916;28;20209;-63
2022/03/30 06:10:07;;;;;;;20.42;12.80;;;10.40;53.60;;;;;;5094975;28;20599;-63
2022/03/30 06:12:35;;;;;;;25.05;11.65;;;10.50;53.80;;;;;;5092217;28;20181;-64
2022/03/30 06:15:02;;;;;;;20.27;12.35;;;10.60;53.50;;;;;;5092072;28;20634;-64
2022/03/30 06:17:29;;;;;;;15.80;11.13;;;10.60;53.50;;;;;;5090089;28;20605;-63
2022/03/30 06:19:59;;;;;;;17.42;11.52;;;10.60;53.60;;;;;;5089113;28;20199;-65
2022/03/30 06:22:30;;;;;;;17.15;11.88;;;10.60;54.10;;;;;;5095029;28;20268;-62
2022/03/30 06:25:00;;;;;;;20.25;13.02;;;10.70;54.10;;;;;;5093936;28;20184;-63
2022/03/30 06:27:28;;;;;;;19.75;11.32;;;10.80;54.80;;;;;;5091646;28;20227;-63
2022/03/30 06:29:55;;;;;;;24.60;11.68;;;10.80;54.60;;;;;;5091721;28;20235;-63
2022/03/30 06:32:23;;;;;;;20.17;10.95;;;10.80;54.50;;;;;;5094808;28;20258;-64
2022/03/30 06:34:50;;;;;;;17.42;12.20;;;10.90;53.50;;;;;;5092783;28;20207;-64
2022/03/30 06:37:18;;;;;;;20.50;15.35;;;10.90;52.90;;;;;;5089063;28;20201;-63
2022/03/30 06:39:48;;;;;;;26.88;15.15;;;11.00;52.30;;;;;;5091369;28;20191;-63
2022/03/30 06:42:18;;;;;;;18.90;12.43;;;11.00;52.00;;;;;;5086561;28;20230;-63
2022/03/30 06:44:45;;;;;;;19.65;13.20;;;11.10;51.60;;;;;;5091645;28;20197;-63
2022/03/30 06:47:12;;;;;;;21.80;12.48;;;11.10;51.40;;;;;;5092160;28;20193;-64
2022/03/30 06:49:40;;;;;;;15.25;13.40;;;11.20;51.50;;;;;;5081062;28;20197;-64
2022/03/30 06:52:09;;;;;;;20.73;14.68;;;11.30;51.20;;;;;;5086341;28;20218;-69
2022/03/30 06:54:38;;;;;;;18.48;13.52;;;11.40;50.80;;;;;;5090095;28;20200;-65
2022/03/30 06:57:06;;;;;;;19.33;12.48;;;11.50;50.80;;;;;;5090366;28;20193;-64
2022/03/30 06:59:34;;;;;;;24.00;14.98;;;11.50;50.60;;;;;;5090161;28;20188;-63
2022/03/30 07:02:02;;;;;;;19.80;12.40;;;11.60;50.80;;;;;;5091269;28;20189;-64
2022/03/30 07:04:29;;;;;;;14.45;11.82;;;11.70;50.60;;;;;;5097122;28;20276;-63
2022/03/30 07:12:26;;;;;;;15.80;11.68;;;11.90;48.40;;;;;;5095058;28;20276;-64
2022/03/30 07:14:55;;;;;;;17.70;11.70;;;11.90;48.50;;;;;;5089913;28;20217;-63
2022/03/30 07:17:22;;;;;;;16.85;11.80;;;12.00;48.60;;;;;;5089957;28;20227;-63
2022/03/30 07:19:50;;;;;;;25.88;12.07;;;12.00;48.10;;;;;;5090885;28;20579;-63
2022/03/30 07:22:17;;;;;;;20.13;12.57;;;11.90;47.70;;;;;;5088371;28;20549;-63
2022/03/30 07:24:44;;;;;;;14.75;10.93;;;11.90;47.50;;;;;;5090026;28;20674;-66
2022/03/30 07:27:11;;;;;;;18.52;10.75;;;11.80;47.10;;;;;;5094566;28;20607;-63
2022/03/30 07:29:39;;;;;;;21.55;12.65;;;11.80;47.10;;;;;;5091402;28;20295;-63
2022/03/30 07:32:09;;;;;;;21.35;11.18;;;11.90;47.00;;;;;;5090785;28;20189;-64
2022/03/30 07:34:36;;;;;;;16.50;10.90;;;12.00;46.30;;;;;;5090020;28;20203;-64
2022/03/30 07:37:04;;;;;;;17.23;11.57;;;12.00;46.90;;;;;;5092907;28;20191;-64
2022/03/30 07:39:32;;;;;;;19.35;12.55;;;12.00;46.70;;;;;;5095164;28;20220;-63
2022/03/30 07:41:59;;;;;;;20.05;11.23;;;12.10;46.80;;;;;;5090611;28;20189;-64
2022/03/30 07:44:26;;;;;;;24.33;11.02;;;12.20;46.20;;;;;;5091544;28;20523;-63
2022/03/30 07:46:54;;;;;;;17.40;11.80;;;12.30;46.40;;;;;;5094774;28;20257;-63
2022/03/30 07:49:23;;;;;;;21.25;10.40;;;12.40;46.70;;;;;;5091306;28;20227;-64
2022/03/30 07:51:50;;;;;;;16.60;11.68;;;12.60;46.90;;;;;;5091074;28;20184;-64
2022/03/30 07:54:17;;;;;;;17.80;11.93;;;12.80;46.60;;;;;;5085868;28;20189;-64
2022/03/30 07:56:45;;;;;;;25.23;11.80;;;13.00;46.40;;;;;;5092898;28;20232;-63
2022/03/30 07:59:13;;;;;;;27.50;11.60;;;13.10;45.90;;;;;;5092084;28;20196;-64
2022/03/30 08:01:40;;;;;;;29.45;11.38;;;13.20;45.30;;;;;;5090352;28;20189;-63
2022/03/30 08:04:08;;;;;;;22.85;12.00;;;13.30;45.20;;;;;;5090685;28;20196;-64
2022/03/30 08:06:38;;;;;;;20.80;11.20;;;13.40;45.00;;;;;;5090952;28;20228;-63
2022/03/30 08:09:05;;;;;;;21.83;10.00;;;13.50;44.50;;;;;;5090727;28;20260;-65
2022/03/30 08:11:32;;;;;;;29.95;10.00;;;13.60;43.70;;;;;;5086217;28;20189;-63
2022/03/30 08:14:00;;;;;;;26.23;11.55;;;13.70;44.30;;;;;;5090179;28;20239;-64
2022/03/30 08:16:27;;;;;;;23.75;8.80;;;13.80;44.20;;;;;;5090912;28;20199;-63
2022/03/30 08:18:56;;;;;;;25.13;10.40;;;13.90;43.50;;;;;;5089949;28;20185;-65
2022/03/30 08:24:10;;;;;;;19.73;9.32;;;14.10;43.40;;;;;;5091983;28;20289;-64
2022/03/30 08:26:39;;;;;;;20.08;9.35;;;14.20;43.00;;;;;;5088534;28;20242;-64
2022/03/30 08:29:07;;;;;;;17.67;9.40;;;14.30;42.70;;;;;;5090015;28;20216;-63
2022/03/30 08:31:34;;;;;;;28.40;10.68;;;14.30;41.80;;;;;;5089707;28;20190;-64
2022/03/30 08:34:02;;;;;;;27.55;10.38;;;14.40;42.20;;;;;;5086065;28;20182;-63
2022/03/30 08:36:30;;;;;;;27.95;8.40;;;14.50;42.60;;;;;;5093831;28;21376;-67
2022/03/30 08:38:57;;;;;;;20.02;8.48;;;14.60;42.50;;;;;;5092960;28;20633;-63
2022/03/30 08:41:27;;;;;;;16.52;8.43;;;14.60;41.40;;;;;;5093377;28;20221;-63
2022/03/30 08:43:54;;;;;;;19.63;9.35;;;14.60;41.80;;;;;;5093785;28;20200;-63
2022/03/30 08:46:22;;;;;;;27.42;11.02;;;14.70;42.50;;;;;;5093950;28;20200;-63
2022/03/30 08:48:49;;;;;;;28.17;10.02;;;14.80;42.70;;;;;;5093474;28;20213;-65
2022/03/30 08:51:17;;;;;;;19.50;8.80;;;15.00;42.80;;;;;;5089031;28;20197;-63
2022/03/30 08:53:45;;;;;;;23.98;10.20;;;15.10;42.50;;;;;;5093764;28;20197;-63
2022/03/30 08:56:13;;;;;;;19.47;9.60;;;15.20;42.30;;;;;;5093885;28;20204;-63
2022/03/30 08:58:42;;;;;;;22.20;9.50;;;15.30;41.80;;;;;;5093521;28;20458;-64
2022/03/30 09:01:13;;;;;;;23.83;9.75;;;15.50;41.70;;;;;;5093366;28;20193;-64
2022/03/30 09:03:55;;;;;;;21.50;9.60;;;15.50;40.80;;;;;;5093531;28;20205;-64
2022/03/30 09:06:31;;;;;;;21.93;9.70;;;15.50;40.80;;;;;;5090269;28;20492;-64
2022/03/30 09:08:58;;;;;;;12.70;7.82;;;15.50;41.10;;;;;;5093113;28;20477;-65
2022/03/30 09:11:29;;;;;;;21.00;8.90;;;15.50;41.10;;;;;;5089730;28;20189;-64
2022/03/30 09:14:06;;;;;;;19.93;7.60;;;15.60;41.10;;;;;;5093845;28;20898;-63
2022/03/30 09:16:45;;;;;;;26.37;8.10;;;15.60;40.60;;;;;;5093007;28;20435;-64
2022/03/30 09:19:14;;;;;;;21.23;9.80;;;15.60;40.90;;;;;;5093001;28;20462;-65
2022/03/30 09:21:44;;;;;;;22.20;8.13;;;15.60;40.80;;;;;;5093134;28;20442;-63
2022/03/30 09:24:12;;;;;;;23.70;6.97;;;15.70;41.00;;;;;;5093310;28;20926;-63
2022/03/30 09:26:41;;;;;;;17.73;6.60;;;15.70;40.80;;;;;;5093945;28;20812;-64
2022/03/30 09:29:17;;;;;;;21.47;6.70;;;15.70;40.90;;;;;;5093922;28;20969;-66
2022/03/30 09:31:48;;;;;;;18.63;7.00;;;15.80;41.10;;;;;;5090136;28;20558;-64
2022/03/30 09:34:15;;;;;;;22.77;6.75;;;15.80;41.40;;;;;;5093087;28;20526;-63
2022/03/30 09:36:44;;;;;;;34.83;9.77;;;15.80;41.60;;;;;;5093571;28;20186;-63
2022/03/30 09:39:29;;;;;;;18.57;8.53;;;15.90;41.70;;;;;;5093007;28;20512;-63
2022/03/30 09:41:59;;;;;;;18.10;7.80;;;15.90;41.60;;;;;;5088793;28;20443;-63
2022/03/30 09:44:29;;;;;;;25.63;8.48;;;15.90;41.80;;;;;;5092879;28;20524;-63
2022/03/30 09:46:59;;;;;;;18.00;7.40;;;15.90;41.80;;;;;;5092045;28;20689;-64
2022/03/30 09:49:41;;;;;;;17.10;8.23;;;15.90;41.90;;;;;;5088253;28;20478;-63
2022/03/30 09:52:16;;;;;;;24.43;8.20;;;15.90;42.30;;;;;;5092544;28;20527;-64
2022/03/30 09:54:49;;;;;;;20.80;8.17;;;15.90;42.40;;;;;;5089173;28;20528;-63
2022/03/30 09:57:18;;;;;;;22.77;8.53;;;15.90;42.70;;;;;;5095811;28;20773;-64
2022/03/30 10:00:18;;;;;;;19.97;9.00;;;15.90;43.10;;;;;;5094790;28;20446;-64
2022/03/30 10:02:47;;;;;;;16.47;7.33;;;15.90;43.30;;;;;;5070196;28;20497;-63
2022/03/30 10:05:18;;;;;;;23.33;8.40;;;15.90;43.40;;;;;;5070014;28;20802;-63
2022/03/30 10:07:46;;;;;;;19.90;6.87;;;15.90;43.70;;;;;;5072171;28;20909;-64
2022/03/30 10:10:17;;;;;;;16.77;7.73;;;15.90;43.80;;;;;;5073691;28;20536;-63
2022/03/30 10:12:45;;;;;;;20.07;8.87;;;15.80;43.80;;;;;;5092296;28;20788;-63
2022/03/30 10:15:13;;;;;;;20.13;7.80;;;15.90;44.00;;;;;;5090585;28;20836;-69
2022/03/30 10:17:42;;;;;;;26.53;10.50;;;15.90;43.80;;;;;;5087466;28;20435;-64
2022/03/30 10:20:12;;;;;;;25.63;8.53;;;16.00;43.80;;;;;;5093290;28;20447;-63
2022/03/30 10:23:20;;;;;;;18.10;8.10;;;16.10;43.80;;;;;;5091609;28;20481;-66
2022/03/30 10:26:10;;;;;;;17.17;8.17;;;16.10;43.50;;;;;;5088461;28;20439;-63
2022/03/30 10:28:52;;;;;;;23.70;8.33;;;16.20;44.10;;;;;;5087788;28;20471;-64
2022/03/30 10:31:22;;;;;;;14.30;7.13;;;16.30;44.40;;;;;;5091433;28;20431;-65
2022/03/30 10:33:52;;;;;;;17.53;7.10;;;16.40;44.20;;;;;;5088331;28;20193;-63
2022/03/30 10:36:24;;;;;;;19.63;7.33;;;16.50;44.60;;;;;;5092407;28;20442;-65
2022/03/30 10:39:24;;;;;;;21.30;7.53;;;16.70;44.50;;;;;;5091832;28;20925;-64
2022/03/30 10:41:53;;;;;;;17.70;8.00;;;16.70;44.10;;;;;;5088854;28;20500;-64
2022/03/30 10:44:37;;;;;;;30.13;9.63;;;16.80;43.70;;;;;;5092836;28;20524;-64
2022/03/30 10:47:09;;;;;;;27.63;7.63;;;16.80;43.20;;;;;;5091941;28;20534;-64
2022/03/30 10:49:42;;;;;;;21.30;7.63;;;16.90;43.20;;;;;;5092007;28;21040;-64
2022/03/30 10:52:38;;;;;;;20.10;7.40;;;16.90;42.80;;;;;;5091746;28;20898;-64
2022/03/30 10:55:45;;;;;;;26.40;7.60;;;16.90;42.70;;;;;;5087885;28;20841;-63
2022/03/30 10:58:16;;;;;;;23.63;8.53;;;16.90;42.50;;;;;;5091213;28;20472;-63
2022/03/30 11:00:43;;;;;;;27.03;10.13;;;16.80;42.10;;;;;;5092753;28;20438;-64
2022/03/30 11:03:12;;;;;;;30.20;9.47;;;16.80;42.00;;;;;;5091655;28;20563;-64
2022/03/30 11:05:45;;;;;;;30.67;9.40;;;16.80;42.10;;;;;;5091335;28;20861;-63
2022/03/30 11:08:50;;;;;;;21.77;9.60;;;16.80;42.20;;;;;;5091192;28;20431;-64
2022/03/30 11:11:22;;;;;;;26.90;8.67;;;16.80;41.30;;;;;;5091739;28;20438;-64
2022/03/30 11:13:50;;;;;;;21.57;8.20;;;16.70;41.60;;;;;;5091196;28;20530;-64
2022/03/30 11:16:17;;;;;;;25.70;9.83;;;16.70;41.70;;;;;;5091064;28;20459;-64
2022/03/30 11:19:02;;;;;;;24.73;9.00;;;16.70;41.70;;;;;;5092857;28;20436;-64
2022/03/30 11:21:31;;;;;;;24.40;8.10;;;16.70;41.90;;;;;;5091553;28;20450;-64
2022/03/30 11:24:05;;;;;;;34.90;12.40;;;16.70;41.10;;;;;;5093388;28;20443;-63
2022/03/30 11:27:18;;;;;;;27.03;9.90;;;16.60;41.40;;;;;;5088173;28;20445;-65
2022/03/30 11:30:01;;;;;;;18.87;8.00;;;16.40;42.00;;;;;;5068700;28;21289;-64
2022/03/30 11:32:42;;;;;;;36.93;8.70;;;16.40;42.40;;;;;;5081717;28;20505;-63
2022/03/30 11:35:11;;;;;;;17.63;7.60;;;16.30;41.90;;;;;;5090937;28;20484;-65
2022/03/30 11:37:42;;;;;;;18.13;9.10;;;16.20;41.60;;;;;;5090840;28;20439;-64
2022/03/30 11:40:12;;;;;;;20.17;9.20;;;16.10;41.80;;;;;;5091247;28;20490;-64
2022/03/30 11:42:40;;;;;;;23.20;8.87;;;16.00;42.30;;;;;;5090733;28;20431;-64
2022/03/30 11:45:19;;;;;;;19.50;8.97;;;15.90;42.60;;;;;;5091999;28;20419;-64
2022/03/30 11:47:48;;;;;;;15.30;7.10;;;15.80;43.30;;;;;;5089909;28;20442;-64
2022/03/30 11:50:17;;;;;;;21.63;9.20;;;15.80;44.90;;;;;;5093704;28;20523;-63
2022/03/30 11:52:54;;;;;;;18.80;8.43;;;15.70;46.00;;;;;;5087871;28;20488;-64
2022/03/30 11:55:22;;;;;;;19.50;7.90;;;15.60;46.50;;;;;;5088496;28;20434;-64
2022/03/30 11:57:51;;;;;;;16.87;7.83;;;15.60;46.70;;;;;;5091694;28;20434;-64
2022/03/30 12:00:22;;;;;;;22.30;8.80;;;15.70;47.70;;;;;;5090661;28;20945;-63
2022/03/30 12:02:49;;;;;;;15.00;7.47;;;15.80;48.40;;;;;;5092672;28;20440;-64
2022/03/30 12:05:16;;;;;;;21.73;8.47;;;15.90;48.60;;;;;;5089513;28;20518;-64
2022/03/30 12:07:45;;;;;;;16.33;8.53;;;16.10;48.20;;;;;;5090463;28;20519;-65
2022/03/30 12:10:16;;;;;;;24.60;8.47;;;16.30;48.40;;;;;;5093771;28;20518;-65
2022/03/30 12:12:44;;;;;;;18.17;8.20;;;16.40;48.50;;;;;;5093841;28;20952;-64
2022/03/30 12:15:13;;;;;;;20.60;9.63;;;16.50;48.20;;;;;;5093785;28;20528;-64
2022/03/30 12:17:40;;;;;;;40.07;10.43;;;16.50;47.30;;;;;;5094101;28;20435;-64
2022/03/30 12:20:10;;;;;;;23.23;10.13;;;16.60;47.00;;;;;;5095225;28;20446;-66
2022/03/30 12:22:38;;;;;;;24.33;9.50;;;16.70;47.00;;;;;;5097930;28;20763;-64
2022/03/30 12:25:19;;;;;;;28.87;9.80;;;16.80;46.70;;;;;;5093877;28;20823;-64
2022/03/30 12:27:46;;;;;;;17.40;8.43;;;16.90;46.60;;;;;;5093644;28;20435;-63
2022/03/30 12:30:13;;;;;;;18.30;8.50;;;16.90;46.60;;;;;;5094179;28;22688;-64
2022/03/30 12:32:41;;;;;;;18.47;10.67;;;16.80;46.30;;;;;;5092557;28;20811;-64
2022/03/30 12:35:10;;;;;;;13.13;8.37;;;16.70;46.20;;;;;;5098008;28;20447;-65
2022/03/30 12:37:38;;;;;;;27.50;10.37;;;16.50;46.00;;;;;;5102238;28;20528;-63
2022/03/30 12:40:12;;;;;;;18.37;9.50;;;16.40;47.00;;;;;;5094503;28;20516;-64
2022/03/30 12:42:44;;;;;;;22.73;9.53;;;16.30;46.20;;;;;;5097363;28;20992;-64
2022/03/30 12:45:14;;;;;;;26.47;10.40;;;16.10;46.40;;;;;;5094098;28;20542;-64
2022/03/30 12:47:48;;;;;;;22.00;9.77;;;16.00;46.70;;;;;;5093483;28;20439;-63
2022/03/30 12:50:18;;;;;;;16.70;9.93;;;15.90;47.10;;;;;;5093706;28;20482;-63
2022/03/30 12:52:48;;;;;;;19.50;9.80;;;15.90;47.70;;;;;;5094239;28;20453;-63
2022/03/30 12:55:18;;;;;;;26.17;11.07;;;15.90;48.00;;;;;;5094917;28;20553;-64